sensor_id;sensor_type;location;lat;lon;timestamp;temperature;humidity
23723;DHT22;12042;52.136;5.584;2023-04-03T00:01:06;4.20;99.90
23723;DHT22;12042;52.136;5.584;2023-04-03T00:03:32;4.20;99.90
23723;DHT22;12042;52.136;5.584;2023-04-03T00:05:58;4.10;99.90
23723;DHT22;12042;52.136;5.584;2023-04-03T00:08:23;4.10;99.90
23723;DHT22;12042;52.136;5.584;2023-04-03T00:10:49;4.10;99.90
23723;DHT22;12042;52.136;5.584;2023-04-03T00:13:15;4.00;99.90
23723;DHT22;12042;52.136;5.584;2023-04-03T00:15:41;4.00;99.90
23723;DHT22;12042;52.136;5.584;2023-04-03T00:18:07;4.00;99.90
23723;DHT22;12042;52.136;5.584;2023-04-03T00:20:33;4.00;99.90
23723;DHT22;12042;52.136;5.584;2023-04-03T00:23:00;4.00;99.90
23723;DHT22;12042;52.136;5.584;2023-04-03T00:25:26;3.90;99.90
23723;DHT22;12042;52.136;5.584;2023-04-03T00:27:52;3.90;99.90
23723;DHT22;12042;52.136;5.584;2023-04-03T00:30:19;3.90;99.90
23723;DHT22;12042;52.136;5.584;2023-04-03T00:32:47;3.90;99.90
23723;DHT22;12042;52.136;5.584;2023-04-03T00:35:12;3.90;99.90
23723;DHT22;12042;52.136;5.584;2023-04-03T00:37:41;3.90;99.90
23723;DHT22;12042;52.136;5.584;2023-04-03T00:40:08;3.90;99.90
23723;DHT22;12042;52.136;5.584;2023-04-03T00:42:36;3.80;99.90
23723;DHT22;12042;52.136;5.584;2023-04-03T00:47:30;3.80;99.90
23723;DHT22;12042;52.136;5.584;2023-04-03T00:49:57;3.80;99.90
23723;DHT22;12042;52.136;5.584;2023-04-03T00:52:26;3.70;99.90
23723;DHT22;12042;52.136;5.584;2023-04-03T00:54:54;3.70;99.90
23723;DHT22;12042;52.136;5.584;2023-04-03T00:57:23;3.70;99.90
23723;DHT22;12042;52.136;5.584;2023-04-03T00:59:51;3.70;99.90
23723;DHT22;12042;52.136;5.584;2023-04-03T01:02:18;3.70;99.90
23723;DHT22;12042;52.136;5.584;2023-04-03T01:04:44;3.70;99.90
23723;DHT22;12042;52.136;5.584;2023-04-03T01:07:21;3.60;99.90
23723;DHT22;12042;52.136;5.584;2023-04-03T01:09:48;3.60;99.90
23723;DHT22;12042;52.136;5.584;2023-04-03T01:14:56;3.60;99.90
23723;DHT22;12042;52.136;5.584;2023-04-03T01:17:34;3.50;99.90
23723;DHT22;12042;52.136;5.584;2023-04-03T01:25:36;3.50;99.90
23723;DHT22;12042;52.136;5.584;2023-04-03T01:28:06;3.40;99.90
23723;DHT22;12042;52.136;5.584;2023-04-03T01:30:42;3.40;99.90
23723;DHT22;12042;52.136;5.584;2023-04-03T01:33:09;3.40;99.90
23723;DHT22;12042;52.136;5.584;2023-04-03T01:35:35;3.40;99.90
23723;DHT22;12042;52.136;5.584;2023-04-03T01:38:01;3.30;99.90
23723;DHT22;12042;52.136;5.584;2023-04-03T01:40:26;3.30;99.90
23723;DHT22;12042;52.136;5.584;2023-04-03T01:42:52;3.30;99.90
23723;DHT22;12042;52.136;5.584;2023-04-03T01:45:17;3.30;99.90
23723;DHT22;12042;52.136;5.584;2023-04-03T01:47:43;3.30;99.90
23723;DHT22;12042;52.136;5.584;2023-04-03T01:50:09;3.20;99.90
23723;DHT22;12042;52.136;5.584;2023-04-03T01:52:34;3.20;99.90
23723;DHT22;12042;52.136;5.584;2023-04-03T01:55:00;3.20;99.90
23723;DHT22;12042;52.136;5.584;2023-04-03T01:57:25;3.10;99.90
23723;DHT22;12042;52.136;5.584;2023-04-03T01:59:51;3.10;99.90
23723;DHT22;12042;52.136;5.584;2023-04-03T02:02:17;3.10;99.90
23723;DHT22;12042;52.136;5.584;2023-04-03T02:04:42;3.00;99.90
23723;DHT22;12042;52.136;5.584;2023-04-03T02:07:08;3.00;99.90
23723;DHT22;12042;52.136;5.584;2023-04-03T02:09:33;3.00;99.90
23723;DHT22;12042;52.136;5.584;2023-04-03T02:11:59;3.00;99.90
23723;DHT22;12042;52.136;5.584;2023-04-03T02:14:25;3.00;99.90
23723;DHT22;12042;52.136;5.584;2023-04-03T02:16:52;2.90;99.90
23723;DHT22;12042;52.136;5.584;2023-04-03T02:19:18;3.00;99.90
23723;DHT22;12042;52.136;5.584;2023-04-03T02:21:44;2.90;99.90
23723;DHT22;12042;52.136;5.584;2023-04-03T02:24:09;2.90;99.90
23723;DHT22;12042;52.136;5.584;2023-04-03T02:26:35;2.80;99.90
23723;DHT22;12042;52.136;5.584;2023-04-03T02:29:00;2.90;99.90
23723;DHT22;12042;52.136;5.584;2023-04-03T02:31:26;2.80;99.90
23723;DHT22;12042;52.136;5.584;2023-04-03T02:33:51;2.80;99.90
23723;DHT22;12042;52.136;5.584;2023-04-03T02:36:17;2.80;99.90
23723;DHT22;12042;52.136;5.584;2023-04-03T02:38:43;2.80;99.90
23723;DHT22;12042;52.136;5.584;2023-04-03T02:41:10;2.80;99.90
23723;DHT22;12042;52.136;5.584;2023-04-03T02:43:37;2.70;99.90
23723;DHT22;12042;52.136;5.584;2023-04-03T02:46:02;2.70;99.90
23723;DHT22;12042;52.136;5.584;2023-04-03T02:48:28;2.70;99.90
23723;DHT22;12042;52.136;5.584;2023-04-03T02:50:54;2.70;99.90
23723;DHT22;12042;52.136;5.584;2023-04-03T02:53:20;2.70;99.90
23723;DHT22;12042;52.136;5.584;2023-04-03T02:55:46;2.70;99.90
23723;DHT22;12042;52.136;5.584;2023-04-03T02:58:11;2.70;99.90
23723;DHT22;12042;52.136;5.584;2023-04-03T03:00:37;2.60;99.90
23723;DHT22;12042;52.136;5.584;2023-04-03T03:03:03;2.60;99.90
23723;DHT22;12042;52.136;5.584;2023-04-03T03:05:30;2.60;99.90
23723;DHT22;12042;52.136;5.584;2023-04-03T03:07:55;2.60;99.90
23723;DHT22;12042;52.136;5.584;2023-04-03T03:10:22;2.50;99.90
23723;DHT22;12042;52.136;5.584;2023-04-03T03:12:48;2.50;99.90
23723;DHT22;12042;52.136;5.584;2023-04-03T03:15:13;2.50;99.90
23723;DHT22;12042;52.136;5.584;2023-04-03T03:17:41;2.50;99.90
23723;DHT22;12042;52.136;5.584;2023-04-03T03:20:07;2.50;99.90
23723;DHT22;12042;52.136;5.584;2023-04-03T03:22:33;2.50;99.90
23723;DHT22;12042;52.136;5.584;2023-04-03T03:24:59;2.50;99.90
23723;DHT22;12042;52.136;5.584;2023-04-03T03:27:26;2.50;99.90
23723;DHT22;12042;52.136;5.584;2023-04-03T03:29:51;2.50;99.90
23723;DHT22;12042;52.136;5.584;2023-04-03T03:32:17;2.40;99.90
23723;DHT22;12042;52.136;5.584;2023-04-03T03:34:43;2.40;99.90
23723;DHT22;12042;52.136;5.584;2023-04-03T03:37:08;2.40;99.90
23723;DHT22;12042;52.136;5.584;2023-04-03T03:39:34;2.40;99.90
23723;DHT22;12042;52.136;5.584;2023-04-03T03:41:59;2.40;99.90
23723;DHT22;12042;52.136;5.584;2023-04-03T03:44:25;2.40;99.90
23723;DHT22;12042;52.136;5.584;2023-04-03T03:46:50;2.40;99.90
23723;DHT22;12042;52.136;5.584;2023-04-03T03:49:16;2.40;99.90
23723;DHT22;12042;52.136;5.584;2023-04-03T03:51:42;2.40;99.90
23723;DHT22;12042;52.136;5.584;2023-04-03T03:54:07;2.30;99.90
23723;DHT22;12042;52.136;5.584;2023-04-03T03:56:33;2.30;99.90
23723;DHT22;12042;52.136;5.584;2023-04-03T03:58:59;2.30;99.90
23723;DHT22;12042;52.136;5.584;2023-04-03T04:01:25;2.30;99.90
23723;DHT22;12042;52.136;5.584;2023-04-03T04:03:51;2.30;99.90
23723;DHT22;12042;52.136;5.584;2023-04-03T04:06:16;2.30;99.90
23723;DHT22;12042;52.136;5.584;2023-04-03T04:08:42;2.30;99.90
23723;DHT22;12042;52.136;5.584;2023-04-03T04:11:09;2.30;99.90
23723;DHT22;12042;52.136;5.584;2023-04-03T04:13:34;2.20;99.90
23723;DHT22;12042;52.136;5.584;2023-04-03T04:16:00;2.20;99.90
23723;DHT22;12042;52.136;5.584;2023-04-03T04:18:26;2.20;99.90
23723;DHT22;12042;52.136;5.584;2023-04-03T04:20:51;2.10;99.90
23723;DHT22;12042;52.136;5.584;2023-04-03T04:23:18;2.10;99.90
23723;DHT22;12042;52.136;5.584;2023-04-03T04:25:45;2.10;99.90
23723;DHT22;12042;52.136;5.584;2023-04-03T04:28:11;2.10;99.90
23723;DHT22;12042;52.136;5.584;2023-04-03T04:30:37;2.10;99.90
23723;DHT22;12042;52.136;5.584;2023-04-03T04:33:03;2.00;99.90
23723;DHT22;12042;52.136;5.584;2023-04-03T04:35:28;1.90;99.90
23723;DHT22;12042;52.136;5.584;2023-04-03T04:37:54;1.90;99.90
23723;DHT22;12042;52.136;5.584;2023-04-03T04:40:20;1.90;99.90
23723;DHT22;12042;52.136;5.584;2023-04-03T04:42:46;1.90;99.90
23723;DHT22;12042;52.136;5.584;2023-04-03T04:45:12;1.80;99.90
23723;DHT22;12042;52.136;5.584;2023-04-03T04:47:37;1.90;99.90
23723;DHT22;12042;52.136;5.584;2023-04-03T04:50:03;1.90;99.90
23723;DHT22;12042;52.136;5.584;2023-04-03T04:52:29;1.80;99.90
23723;DHT22;12042;52.136;5.584;2023-04-03T04:54:54;1.80;99.90
23723;DHT22;12042;52.136;5.584;2023-04-03T04:57:20;1.80;99.90
23723;DHT22;12042;52.136;5.584;2023-04-03T04:59:46;1.80;99.90
23723;DHT22;12042;52.136;5.584;2023-04-03T05:02:11;1.80;99.90
23723;DHT22;12042;52.136;5.584;2023-04-03T05:04:37;1.80;99.90
23723;DHT22;12042;52.136;5.584;2023-04-03T05:07:03;1.80;99.90
23723;DHT22;12042;52.136;5.584;2023-04-03T05:09:28;1.80;99.90
23723;DHT22;12042;52.136;5.584;2023-04-03T05:11:54;1.80;99.90
23723;DHT22;12042;52.136;5.584;2023-04-03T05:14:21;1.70;99.90
23723;DHT22;12042;52.136;5.584;2023-04-03T05:16:46;1.70;99.90
23723;DHT22;12042;52.136;5.584;2023-04-03T05:19:13;1.70;99.90
23723;DHT22;12042;52.136;5.584;2023-04-03T05:21:38;1.70;99.90
23723;DHT22;12042;52.136;5.584;2023-04-03T05:24:04;1.70;99.90
23723;DHT22;12042;52.136;5.584;2023-04-03T05:26:30;1.70;99.90
23723;DHT22;12042;52.136;5.584;2023-04-03T05:28:56;1.70;99.90
23723;DHT22;12042;52.136;5.584;2023-04-03T05:31:22;1.70;99.90
23723;DHT22;12042;52.136;5.584;2023-04-03T05:33:48;1.70;99.90
23723;DHT22;12042;52.136;5.584;2023-04-03T05:36:14;1.70;99.90
23723;DHT22;12042;52.136;5.584;2023-04-03T05:38:39;1.70;99.90
23723;DHT22;12042;52.136;5.584;2023-04-03T05:41:05;1.70;99.90
23723;DHT22;12042;52.136;5.584;2023-04-03T05:43:31;1.80;99.90
23723;DHT22;12042;52.136;5.584;2023-04-03T05:45:57;1.80;99.90
23723;DHT22;12042;52.136;5.584;2023-04-03T05:48:22;1.80;99.90
23723;DHT22;12042;52.136;5.584;2023-04-03T05:50:48;1.70;99.90
23723;DHT22;12042;52.136;5.584;2023-04-03T05:53:22;1.70;99.90
23723;DHT22;12042;52.136;5.584;2023-04-03T05:55:50;1.80;99.90
23723;DHT22;12042;52.136;5.584;2023-04-03T05:58:15;1.80;99.90
23723;DHT22;12042;52.136;5.584;2023-04-03T06:00:41;1.90;99.90
23723;DHT22;12042;52.136;5.584;2023-04-03T06:03:07;1.90;99.90
23723;DHT22;12042;52.136;5.584;2023-04-03T06:05:32;2.00;99.90
23723;DHT22;12042;52.136;5.584;2023-04-03T06:07:58;2.00;99.90
23723;DHT22;12042;52.136;5.584;2023-04-03T06:10:24;2.10;99.90
23723;DHT22;12042;52.136;5.584;2023-04-03T06:12:50;2.10;99.90
23723;DHT22;12042;52.136;5.584;2023-04-03T06:15:16;2.20;99.90
23723;DHT22;12042;52.136;5.584;2023-04-03T06:17:43;2.30;99.90
23723;DHT22;12042;52.136;5.584;2023-04-03T06:20:09;2.30;99.90
23723;DHT22;12042;52.136;5.584;2023-04-03T06:22:35;2.30;99.90
23723;DHT22;12042;52.136;5.584;2023-04-03T06:25:01;2.30;99.90
23723;DHT22;12042;52.136;5.584;2023-04-03T06:27:26;2.30;99.90
23723;DHT22;12042;52.136;5.584;2023-04-03T06:29:52;2.30;99.90
23723;DHT22;12042;52.136;5.584;2023-04-03T06:32:17;2.40;99.90
23723;DHT22;12042;52.136;5.584;2023-04-03T06:34:43;2.50;99.90
23723;DHT22;12042;52.136;5.584;2023-04-03T06:37:21;2.60;99.90
23723;DHT22;12042;52.136;5.584;2023-04-03T06:39:48;2.60;99.90
23723;DHT22;12042;52.136;5.584;2023-04-03T06:42:13;2.70;99.90
23723;DHT22;12042;52.136;5.584;2023-04-03T06:44:39;2.80;99.90
23723;DHT22;12042;52.136;5.584;2023-04-03T06:47:05;2.90;99.90
23723;DHT22;12042;52.136;5.584;2023-04-03T06:49:31;2.90;99.90
23723;DHT22;12042;52.136;5.584;2023-04-03T06:51:57;2.90;99.90
23723;DHT22;12042;52.136;5.584;2023-04-03T06:54:23;3.00;99.90
23723;DHT22;12042;52.136;5.584;2023-04-03T06:56:48;3.00;99.90
23723;DHT22;12042;52.136;5.584;2023-04-03T06:59:15;3.00;99.90
23723;DHT22;12042;52.136;5.584;2023-04-03T07:01:40;3.00;99.90
23723;DHT22;12042;52.136;5.584;2023-04-03T07:04:07;3.00;99.90
23723;DHT22;12042;52.136;5.584;2023-04-03T07:06:33;3.10;99.90
23723;DHT22;12042;52.136;5.584;2023-04-03T07:09:00;3.20;99.90
23723;DHT22;12042;52.136;5.584;2023-04-03T07:11:26;3.20;99.90
23723;DHT22;12042;52.136;5.584;2023-04-03T07:13:52;3.30;99.90
23723;DHT22;12042;52.136;5.584;2023-04-03T07:16:18;3.40;99.90
23723;DHT22;12042;52.136;5.584;2023-04-03T07:18:45;3.30;99.90
23723;DHT22;12042;52.136;5.584;2023-04-03T07:21:11;3.30;99.90
23723;DHT22;12042;52.136;5.584;2023-04-03T07:23:37;3.50;99.90
23723;DHT22;12042;52.136;5.584;2023-04-03T07:26:03;3.60;99.90
23723;DHT22;12042;52.136;5.584;2023-04-03T07:28:29;3.70;99.90
23723;DHT22;12042;52.136;5.584;2023-04-03T07:31:06;3.80;99.90
23723;DHT22;12042;52.136;5.584;2023-04-03T07:33:34;3.90;99.90
23723;DHT22;12042;52.136;5.584;2023-04-03T07:36:01;3.90;99.90
23723;DHT22;12042;52.136;5.584;2023-04-03T07:38:27;4.00;99.90
23723;DHT22;12042;52.136;5.584;2023-04-03T07:40:53;4.10;99.90
23723;DHT22;12042;52.136;5.584;2023-04-03T07:43:21;4.20;99.90
23723;DHT22;12042;52.136;5.584;2023-04-03T07:45:48;4.30;99.90
23723;DHT22;12042;52.136;5.584;2023-04-03T07:48:18;4.30;99.90
23723;DHT22;12042;52.136;5.584;2023-04-03T07:50:44;4.30;99.90
23723;DHT22;12042;52.136;5.584;2023-04-03T07:53:09;4.30;99.90
23723;DHT22;12042;52.136;5.584;2023-04-03T07:55:35;4.40;99.90
23723;DHT22;12042;52.136;5.584;2023-04-03T07:58:11;4.60;99.90
23723;DHT22;12042;52.136;5.584;2023-04-03T08:00:37;4.70;99.90
23723;DHT22;12042;52.136;5.584;2023-04-03T08:03:03;4.70;99.90
23723;DHT22;12042;52.136;5.584;2023-04-03T08:05:29;4.80;99.90
23723;DHT22;12042;52.136;5.584;2023-04-03T08:07:55;4.80;99.90
23723;DHT22;12042;52.136;5.584;2023-04-03T08:10:21;5.00;99.90
23723;DHT22;12042;52.136;5.584;2023-04-03T08:12:47;5.10;99.90
23723;DHT22;12042;52.136;5.584;2023-04-03T08:15:13;5.20;99.90
23723;DHT22;12042;52.136;5.584;2023-04-03T08:17:39;5.10;99.90
23723;DHT22;12042;52.136;5.584;2023-04-03T08:20:06;5.10;99.90
23723;DHT22;12042;52.136;5.584;2023-04-03T08:22:33;5.40;99.90
23723;DHT22;12042;52.136;5.584;2023-04-03T08:24:59;5.50;99.90
23723;DHT22;12042;52.136;5.584;2023-04-03T08:27:25;5.60;99.90
23723;DHT22;12042;52.136;5.584;2023-04-03T08:29:51;5.70;99.90
23723;DHT22;12042;52.136;5.584;2023-04-03T08:32:17;5.80;99.90
23723;DHT22;12042;52.136;5.584;2023-04-03T08:34:43;5.90;99.90
23723;DHT22;12042;52.136;5.584;2023-04-03T08:37:09;5.90;99.90
23723;DHT22;12042;52.136;5.584;2023-04-03T08:39:35;5.90;99.90
23723;DHT22;12042;52.136;5.584;2023-04-03T08:42:05;5.90;99.90
23723;DHT22;12042;52.136;5.584;2023-04-03T08:49:49;6.40;99.90
23723;DHT22;12042;52.136;5.584;2023-04-03T08:55:25;6.50;99.90
23723;DHT22;12042;52.136;5.584;2023-04-03T08:57:50;6.50;99.90
23723;DHT22;12042;52.136;5.584;2023-04-03T09:00:20;6.80;99.90
23723;DHT22;12042;52.136;5.584;2023-04-03T09:02:50;7.00;99.90
23723;DHT22;12042;52.136;5.584;2023-04-03T09:05:18;7.20;99.90
23723;DHT22;12042;52.136;5.584;2023-04-03T09:07:59;7.30;99.90
23723;DHT22;12042;52.136;5.584;2023-04-03T09:10:29;7.40;99.90
23723;DHT22;12042;52.136;5.584;2023-04-03T09:13:27;7.70;99.90
23723;DHT22;12042;52.136;5.584;2023-04-03T09:15:56;7.70;99.90
23723;DHT22;12042;52.136;5.584;2023-04-03T09:18:31;7.60;99.90
23723;DHT22;12042;52.136;5.584;2023-04-03T09:26:05;7.60;99.90
23723;DHT22;12042;52.136;5.584;2023-04-03T09:28:37;7.80;99.90
23723;DHT22;12042;52.136;5.584;2023-04-03T09:31:16;7.80;99.90
23723;DHT22;12042;52.136;5.584;2023-04-03T09:33:43;7.80;99.90
23723;DHT22;12042;52.136;5.584;2023-04-03T09:36:10;8.10;99.90
23723;DHT22;12042;52.136;5.584;2023-04-03T09:38:36;8.40;99.90
23723;DHT22;12042;52.136;5.584;2023-04-03T09:41:10;8.20;99.90
23723;DHT22;12042;52.136;5.584;2023-04-03T09:43:38;8.00;99.90
23723;DHT22;12042;52.136;5.584;2023-04-03T09:49:01;8.30;99.90
23723;DHT22;12042;52.136;5.584;2023-04-03T09:51:28;8.50;99.90
23723;DHT22;12042;52.136;5.584;2023-04-03T09:53:54;8.60;99.80
23723;DHT22;12042;52.136;5.584;2023-04-03T09:56:23;8.40;99.20
23723;DHT22;12042;52.136;5.584;2023-04-03T10:01:38;8.40;99.70
23723;DHT22;12042;52.136;5.584;2023-04-03T10:06:50;8.80;97.30
23723;DHT22;12042;52.136;5.584;2023-04-03T10:09:26;8.50;98.20
23723;DHT22;12042;52.136;5.584;2023-04-03T10:14:27;8.50;98.10
23723;DHT22;12042;52.136;5.584;2023-04-03T10:17:05;8.50;97.40
23723;DHT22;12042;52.136;5.584;2023-04-03T10:22:17;8.90;98.00
23723;DHT22;12042;52.136;5.584;2023-04-03T10:25:07;8.90;97.00
23723;DHT22;12042;52.136;5.584;2023-04-03T10:27:42;9.20;97.20
23723;DHT22;12042;52.136;5.584;2023-04-03T10:32:46;8.90;97.20
23723;DHT22;12042;52.136;5.584;2023-04-03T10:40:59;9.30;97.00
23723;DHT22;12042;52.136;5.584;2023-04-03T10:51:56;9.30;97.00
23723;DHT22;12042;52.136;5.584;2023-04-03T10:54:41;9.40;96.50
23723;DHT22;12042;52.136;5.584;2023-04-03T10:57:10;9.40;97.20
23723;DHT22;12042;52.136;5.584;2023-04-03T10:59:43;9.20;97.70
23723;DHT22;12042;52.136;5.584;2023-04-03T11:04:45;9.50;98.80
23723;DHT22;12042;52.136;5.584;2023-04-03T11:07:28;9.90;98.70
23723;DHT22;12042;52.136;5.584;2023-04-03T11:10:04;10.00;97.60
23723;DHT22;12042;52.136;5.584;2023-04-03T11:15:04;9.70;98.30
23723;DHT22;12042;52.136;5.584;2023-04-03T11:17:38;9.50;97.30
23723;DHT22;12042;52.136;5.584;2023-04-03T11:22:53;9.60;97.70
23723;DHT22;12042;52.136;5.584;2023-04-03T11:25:22;9.50;97.50
23723;DHT22;12042;52.136;5.584;2023-04-03T11:28:00;9.60;98.00
23723;DHT22;12042;52.136;5.584;2023-04-03T11:33:24;9.70;97.60
23723;DHT22;12042;52.136;5.584;2023-04-03T11:35:58;9.60;96.70
23723;DHT22;12042;52.136;5.584;2023-04-03T11:38:31;9.60;96.50
23723;DHT22;12042;52.136;5.584;2023-04-03T11:41:03;9.50;97.30
23723;DHT22;12042;52.136;5.584;2023-04-03T11:43:31;9.50;96.90
23723;DHT22;12042;52.136;5.584;2023-04-03T11:46:07;9.70;97.80
23723;DHT22;12042;52.136;5.584;2023-04-03T11:53:53;10.00;97.30
23723;DHT22;12042;52.136;5.584;2023-04-03T12:04:22;10.00;96.50
23723;DHT22;12042;52.136;5.584;2023-04-03T12:06:50;10.00;97.00
23723;DHT22;12042;52.136;5.584;2023-04-03T12:09:30;10.00;98.10
23723;DHT22;12042;52.136;5.584;2023-04-03T12:11:59;10.10;98.60
23723;DHT22;12042;52.136;5.584;2023-04-03T12:14:26;10.10;96.40
23723;DHT22;12042;52.136;5.584;2023-04-03T12:16:56;10.30;96.90
23723;DHT22;12042;52.136;5.584;2023-04-03T12:24:30;10.00;96.70
23723;DHT22;12042;52.136;5.584;2023-04-03T12:46:38;10.20;96.70
23723;DHT22;12042;52.136;5.584;2023-04-03T12:49:22;10.10;96.90
23723;DHT22;12042;52.136;5.584;2023-04-03T12:51:50;9.80;96.60
23723;DHT22;12042;52.136;5.584;2023-04-03T12:56:44;10.10;97.40
23723;DHT22;12042;52.136;5.584;2023-04-03T12:59:21;10.00;97.20
23723;DHT22;12042;52.136;5.584;2023-04-03T13:01:55;10.00;98.20
23723;DHT22;12042;52.136;5.584;2023-04-03T13:04:21;10.20;98.10
23723;DHT22;12042;52.136;5.584;2023-04-03T13:06:47;10.20;97.60
23723;DHT22;12042;52.136;5.584;2023-04-03T13:09:23;10.10;96.80
23723;DHT22;12042;52.136;5.584;2023-04-03T13:12:30;10.30;97.50
23723;DHT22;12042;52.136;5.584;2023-04-03T13:14:58;10.10;98.10
23723;DHT22;12042;52.136;5.584;2023-04-03T13:17:26;10.00;97.30
23723;DHT22;12042;52.136;5.584;2023-04-03T13:19:53;10.00;98.70
23723;DHT22;12042;52.136;5.584;2023-04-03T13:22:43;10.10;97.90
23723;DHT22;12042;52.136;5.584;2023-04-03T13:25:15;10.00;97.60
23723;DHT22;12042;52.136;5.584;2023-04-03T13:27:41;10.20;99.20
23723;DHT22;12042;52.136;5.584;2023-04-03T13:30:38;10.30;97.50
23723;DHT22;12042;52.136;5.584;2023-04-03T13:33:18;10.30;97.70
23723;DHT22;12042;52.136;5.584;2023-04-03T13:35:44;10.20;96.80
23723;DHT22;12042;52.136;5.584;2023-04-03T13:40:53;10.00;96.90
23723;DHT22;12042;52.136;5.584;2023-04-03T13:43:24;10.10;97.60
23723;DHT22;12042;52.136;5.584;2023-04-03T13:48:40;10.30;97.00
23723;DHT22;12042;52.136;5.584;2023-04-03T13:53:57;10.20;96.50
23723;DHT22;12042;52.136;5.584;2023-04-03T13:56:32;10.10;96.80
23723;DHT22;12042;52.136;5.584;2023-04-03T14:01:55;10.40;98.10
23723;DHT22;12042;52.136;5.584;2023-04-03T14:07:09;10.30;98.00
23723;DHT22;12042;52.136;5.584;2023-04-03T14:09:35;10.40;97.30
23723;DHT22;12042;52.136;5.584;2023-04-03T14:12:12;10.30;98.10
23723;DHT22;12042;52.136;5.584;2023-04-03T14:14:40;10.30;97.50
23723;DHT22;12042;52.136;5.584;2023-04-03T14:17:18;10.30;97.00
23723;DHT22;12042;52.136;5.584;2023-04-03T14:19:45;10.30;97.50
23723;DHT22;12042;52.136;5.584;2023-04-03T14:24:44;10.30;98.50
23723;DHT22;12042;52.136;5.584;2023-04-03T14:27:28;10.20;98.40
23723;DHT22;12042;52.136;5.584;2023-04-03T14:29:55;10.30;98.70
23723;DHT22;12042;52.136;5.584;2023-04-03T14:32:22;10.20;99.10
23723;DHT22;12042;52.136;5.584;2023-04-03T14:34:49;10.20;98.70
23723;DHT22;12042;52.136;5.584;2023-04-03T14:37:22;10.10;98.80
23723;DHT22;12042;52.136;5.584;2023-04-03T14:39:48;10.10;99.50
23723;DHT22;12042;52.136;5.584;2023-04-03T14:42:17;10.30;99.90
23723;DHT22;12042;52.136;5.584;2023-04-03T14:44:43;10.30;99.10
23723;DHT22;12042;52.136;5.584;2023-04-03T14:47:11;10.20;99.50
23723;DHT22;12042;52.136;5.584;2023-04-03T14:49:37;10.30;99.10
23723;DHT22;12042;52.136;5.584;2023-04-03T14:52:02;10.20;98.50
23723;DHT22;12042;52.136;5.584;2023-04-03T14:54:28;10.30;99.20
23723;DHT22;12042;52.136;5.584;2023-04-03T14:56:55;10.30;99.50
23723;DHT22;12042;52.136;5.584;2023-04-03T14:59:22;10.20;99.30
23723;DHT22;12042;52.136;5.584;2023-04-03T15:01:48;10.10;99.60
23723;DHT22;12042;52.136;5.584;2023-04-03T15:04:18;10.20;99.20
23723;DHT22;12042;52.136;5.584;2023-04-03T15:06:45;10.40;99.30
23723;DHT22;12042;52.136;5.584;2023-04-03T15:09:23;10.50;98.70
23723;DHT22;12042;52.136;5.584;2023-04-03T15:11:50;10.40;98.00
23723;DHT22;12042;52.136;5.584;2023-04-03T15:14:17;10.10;98.90
23723;DHT22;12042;52.136;5.584;2023-04-03T15:16:42;10.10;99.40
23723;DHT22;12042;52.136;5.584;2023-04-03T15:19:08;10.50;99.10
23723;DHT22;12042;52.136;5.584;2023-04-03T15:21:34;10.40;98.80
23723;DHT22;12042;52.136;5.584;2023-04-03T15:24:00;10.30;99.50
23723;DHT22;12042;52.136;5.584;2023-04-03T15:26:25;10.20;99.90
23723;DHT22;12042;52.136;5.584;2023-04-03T15:28:51;10.30;99.90
23723;DHT22;12042;52.136;5.584;2023-04-03T15:31:17;10.20;99.20
23723;DHT22;12042;52.136;5.584;2023-04-03T15:33:42;10.00;99.70
23723;DHT22;12042;52.136;5.584;2023-04-03T15:36:08;9.90;99.70
23723;DHT22;12042;52.136;5.584;2023-04-03T15:38:34;10.00;99.70
23723;DHT22;12042;52.136;5.584;2023-04-03T15:41:00;10.30;99.90
23723;DHT22;12042;52.136;5.584;2023-04-03T15:43:25;10.30;99.90
23723;DHT22;12042;52.136;5.584;2023-04-03T15:45:51;10.20;99.90
23723;DHT22;12042;52.136;5.584;2023-04-03T15:48:17;10.20;99.90
23723;DHT22;12042;52.136;5.584;2023-04-03T15:50:43;10.20;99.90
23723;DHT22;12042;52.136;5.584;2023-04-03T15:53:09;10.10;99.90
23723;DHT22;12042;52.136;5.584;2023-04-03T15:55:36;10.10;99.90
23723;DHT22;12042;52.136;5.584;2023-04-03T15:58:03;10.10;99.90
23723;DHT22;12042;52.136;5.584;2023-04-03T16:00:29;9.90;99.90
23723;DHT22;12042;52.136;5.584;2023-04-03T16:03:05;9.70;99.90
23723;DHT22;12042;52.136;5.584;2023-04-03T16:05:32;9.60;99.90
23723;DHT22;12042;52.136;5.584;2023-04-03T16:07:59;9.60;99.90
23723;DHT22;12042;52.136;5.584;2023-04-03T16:10:25;9.60;99.90
23723;DHT22;12042;52.136;5.584;2023-04-03T16:12:51;9.50;99.90
23723;DHT22;12042;52.136;5.584;2023-04-03T16:15:17;9.60;99.90
23723;DHT22;12042;52.136;5.584;2023-04-03T16:17:42;9.60;99.90
23723;DHT22;12042;52.136;5.584;2023-04-03T16:20:12;9.60;99.90
23723;DHT22;12042;52.136;5.584;2023-04-03T16:22:38;9.50;99.90
23723;DHT22;12042;52.136;5.584;2023-04-03T16:25:05;9.50;99.90
23723;DHT22;12042;52.136;5.584;2023-04-03T16:27:32;9.50;99.90
23723;DHT22;12042;52.136;5.584;2023-04-03T16:29:58;9.60;99.90
23723;DHT22;12042;52.136;5.584;2023-04-03T16:32:25;9.60;99.90
23723;DHT22;12042;52.136;5.584;2023-04-03T16:34:52;9.60;99.90
23723;DHT22;12042;52.136;5.584;2023-04-03T16:37:17;9.40;99.90
23723;DHT22;12042;52.136;5.584;2023-04-03T16:39:43;9.40;99.90
23723;DHT22;12042;52.136;5.584;2023-04-03T16:42:09;9.50;99.90
23723;DHT22;12042;52.136;5.584;2023-04-03T16:44:35;9.50;99.90
23723;DHT22;12042;52.136;5.584;2023-04-03T16:47:01;9.30;99.90
23723;DHT22;12042;52.136;5.584;2023-04-03T16:49:27;9.30;99.90
23723;DHT22;12042;52.136;5.584;2023-04-03T16:51:57;9.20;99.90
23723;DHT22;12042;52.136;5.584;2023-04-03T16:54:23;9.30;99.90
23723;DHT22;12042;52.136;5.584;2023-04-03T16:56:48;9.30;99.90
23723;DHT22;12042;52.136;5.584;2023-04-03T16:59:14;9.40;99.90
23723;DHT22;12042;52.136;5.584;2023-04-03T17:01:40;9.20;99.90
23723;DHT22;12042;52.136;5.584;2023-04-03T17:04:05;9.10;99.90
23723;DHT22;12042;52.136;5.584;2023-04-03T17:06:31;9.10;99.90
23723;DHT22;12042;52.136;5.584;2023-04-03T17:08:57;9.10;99.90
23723;DHT22;12042;52.136;5.584;2023-04-03T17:11:22;9.10;99.90
23723;DHT22;12042;52.136;5.584;2023-04-03T17:13:48;9.10;99.90
23723;DHT22;12042;52.136;5.584;2023-04-03T17:16:15;9.00;99.90
23723;DHT22;12042;52.136;5.584;2023-04-03T17:18:41;9.00;99.90
23723;DHT22;12042;52.136;5.584;2023-04-03T17:21:08;9.00;99.90
23723;DHT22;12042;52.136;5.584;2023-04-03T17:23:35;9.00;99.90
23723;DHT22;12042;52.136;5.584;2023-04-03T17:26:04;8.90;99.90
23723;DHT22;12042;52.136;5.584;2023-04-03T17:28:30;8.80;99.90
23723;DHT22;12042;52.136;5.584;2023-04-03T17:30:58;8.60;99.90
23723;DHT22;12042;52.136;5.584;2023-04-03T17:33:25;8.50;99.90
23723;DHT22;12042;52.136;5.584;2023-04-03T17:35:54;8.50;99.90
23723;DHT22;12042;52.136;5.584;2023-04-03T17:38:20;8.40;99.90
23723;DHT22;12042;52.136;5.584;2023-04-03T17:40:46;8.50;99.90
23723;DHT22;12042;52.136;5.584;2023-04-03T17:43:12;8.50;99.90
23723;DHT22;12042;52.136;5.584;2023-04-03T17:45:37;8.50;99.90
23723;DHT22;12042;52.136;5.584;2023-04-03T17:48:03;8.50;99.90